createdAt,value
2017-05-30T00:00:56.336Z,20.00
2017-05-30T00:03:24.624Z,19.80
2017-05-30T00:05:53.054Z,19.50
2017-05-30T00:08:20.572Z,19.40
2017-05-30T00:10:48.109Z,19.30
2017-05-30T00:13:16.681Z,19.50
2017-05-30T00:15:44.980Z,19.40
2017-05-30T00:18:13.265Z,19.40
2017-05-30T00:20:41.858Z,19.30
2017-05-30T00:23:10.167Z,19.30
2017-05-30T00:25:38.450Z,19.40
2017-05-30T00:28:06.813Z,19.40
2017-05-30T00:30:35.100Z,19.20
2017-05-30T00:33:02.643Z,19.20
2017-05-30T01:03:56.739Z,18.80
2017-05-30T01:06:25.010Z,18.60
2017-05-30T01:08:52.523Z,18.60
2017-05-30T01:11:20.107Z,18.60
2017-05-30T01:13:48.392Z,18.50
2017-05-30T01:16:15.910Z,18.50
2017-05-30T01:18:43.516Z,18.50
2017-05-30T01:21:11.036Z,18.40
2017-05-30T01:23:38.560Z,18.40
2017-05-30T01:26:06.911Z,18.50
2017-05-30T01:28:35.204Z,18.40
2017-05-30T01:31:03.699Z,18.50
2017-05-30T01:33:31.777Z,18.40
2017-05-30T01:36:00.054Z,18.30
2017-05-30T01:38:28.341Z,18.20
2017-05-30T01:40:56.788Z,18.30
2017-05-30T01:43:25.073Z,18.30
2017-05-30T01:45:53.379Z,18.20
2017-05-30T01:48:20.945Z,18.20
2017-05-30T01:50:48.463Z,18.20
2017-05-30T01:53:16.748Z,18.40
2017-05-30T01:55:44.321Z,18.40
2017-05-30T01:58:11.900Z,18.50
2017-05-30T02:00:39.416Z,18.60
2017-05-30T02:03:08.028Z,18.70
2017-05-30T02:05:35.544Z,18.70
2017-05-30T02:08:03.823Z,18.90
2017-05-30T02:10:32.476Z,18.90
2017-05-30T02:13:00.776Z,18.90
2017-05-30T02:15:29.061Z,19.00
2017-05-30T02:17:57.728Z,18.90
2017-05-30T02:20:26.008Z,18.90
2017-05-30T02:22:54.314Z,18.90
2017-05-30T02:25:22.647Z,18.90
2017-05-30T02:27:50.936Z,18.80
2017-05-30T02:30:19.380Z,18.80
2017-05-30T02:32:47.971Z,18.80
2017-05-30T02:35:16.400Z,18.80
2017-05-30T02:37:43.916Z,18.80
2017-05-30T02:40:12.476Z,18.90
2017-05-30T02:42:40.760Z,18.80
2017-05-30T02:45:09.045Z,18.90
2017-05-30T02:47:37.639Z,18.90
2017-05-30T02:50:06.128Z,18.90
2017-05-30T02:52:33.754Z,18.80
2017-05-30T02:55:02.031Z,18.80
2017-05-30T02:57:30.835Z,18.90
2017-05-30T02:59:59.167Z,18.90
2017-05-30T03:02:27.907Z,18.90
2017-05-30T03:04:56.198Z,18.90
2017-05-30T03:07:24.527Z,18.90
2017-05-30T03:09:52.805Z,18.80
2017-05-30T03:12:21.081Z,18.80
2017-05-30T03:14:48.635Z,18.80
2017-05-30T03:17:16.925Z,18.70
2017-05-30T03:19:45.204Z,18.70
2017-05-30T03:22:13.052Z,18.70
2017-05-30T03:24:40.602Z,18.70
2017-05-30T03:27:08.220Z,18.80
2017-05-30T03:29:36.499Z,18.70
2017-05-30T03:32:04.775Z,18.60
2017-05-30T03:34:33.383Z,18.60
2017-05-30T03:37:00.898Z,18.60
2017-05-30T03:39:28.408Z,18.70
2017-05-30T03:41:56.737Z,18.60
2017-05-30T03:44:24.259Z,18.60
2017-05-30T03:46:51.781Z,18.60
2017-05-30T03:49:19.437Z,18.60
2017-05-30T03:51:47.739Z,18.90
2017-05-30T03:54:16.031Z,19.00
2017-05-30T03:56:44.340Z,19.00
2017-05-30T03:59:12.623Z,19.00
2017-05-30T04:01:40.964Z,18.90
2017-05-30T04:04:09.259Z,19.00
2017-05-30T04:06:36.775Z,19.00
2017-05-30T04:09:05.372Z,19.00
2017-05-30T04:11:33.655Z,19.20
2017-05-30T04:14:01.949Z,19.30
2017-05-30T04:16:30.260Z,19.10
2017-05-30T04:18:57.771Z,19.10
2017-05-30T04:21:25.285Z,19.10
2017-05-30T04:23:53.656Z,19.30
2017-05-30T04:26:21.964Z,19.40
2017-05-30T04:28:50.312Z,19.60
2017-05-30T04:31:18.865Z,19.50
2017-05-30T04:33:47.547Z,19.50
2017-05-30T04:36:15.884Z,19.50
2017-05-30T04:38:44.519Z,19.50
2017-05-30T04:41:12.799Z,19.50
2017-05-30T04:43:40.320Z,19.50
2017-05-30T04:46:09.345Z,19.50
2017-05-30T04:48:37.654Z,19.40
2017-05-30T04:51:05.180Z,19.40
2017-05-30T04:53:33.524Z,19.20
2017-05-30T04:56:01.040Z,19.20
2017-05-30T04:58:28.562Z,19.30
2017-05-30T05:00:56.216Z,19.30
2017-05-30T05:03:24.511Z,19.30
2017-05-30T05:05:52.035Z,19.30
2017-05-30T05:08:20.644Z,19.30
2017-05-30T05:10:48.185Z,19.40
2017-05-30T05:13:15.704Z,19.50
2017-05-30T05:15:44.335Z,19.60
2017-05-30T05:18:12.631Z,19.80
2017-05-30T05:20:40.926Z,19.80
2017-05-30T05:23:09.572Z,19.90
2017-05-30T05:25:37.084Z,19.90
2017-05-30T05:28:04.609Z,19.80
2017-05-30T05:30:33.163Z,19.90
2017-05-30T05:33:01.451Z,19.80
2017-05-30T05:35:28.967Z,19.80
2017-05-30T05:37:57.340Z,19.40
2017-05-30T05:40:24.943Z,19.40
2017-05-30T05:42:53.493Z,19.50
2017-05-30T05:45:21.076Z,19.50
2017-05-30T05:47:49.845Z,19.60
2017-05-30T05:50:18.164Z,19.50
2017-05-30T05:52:45.691Z,19.40
2017-05-30T05:55:14.384Z,19.70
2017-05-30T05:57:42.795Z,19.90
2017-05-30T06:00:11.147Z,20.00
2017-05-30T06:02:38.664Z,20.00
2017-05-30T06:05:06.228Z,20.20
2017-05-30T06:07:33.797Z,20.30
2017-05-30T06:10:02.086Z,20.60
2017-05-30T06:12:30.464Z,20.90
2017-05-30T06:14:58.747Z,21.40
2017-05-30T06:17:27.040Z,21.70
2017-05-30T06:19:55.375Z,21.90
2017-05-30T06:22:23.664Z,22.20
2017-05-30T06:24:51.945Z,22.30
2017-05-30T06:27:20.576Z,22.40
2017-05-30T06:29:48.858Z,22.40
2017-05-30T06:32:17.659Z,22.20
2017-05-30T06:34:45.229Z,22.20
2017-05-30T06:37:13.517Z,21.90
2017-05-30T06:39:41.888Z,21.80
2017-05-30T06:42:10.224Z,21.70
2017-05-30T06:44:38.520Z,21.90
2017-05-30T06:47:07.053Z,21.90
2017-05-30T06:49:35.423Z,22.00
2017-05-30T06:52:03.734Z,22.10
2017-05-30T06:54:32.334Z,22.20
2017-05-30T06:57:00.661Z,22.40
2017-05-30T06:59:28.182Z,22.40
2017-05-30T07:01:55.703Z,22.60
2017-05-30T07:04:24.053Z,22.90
2017-05-30T07:06:52.340Z,23.10
2017-05-30T07:09:19.856Z,23.10
2017-05-30T07:11:47.487Z,23.30
2017-05-30T07:14:15.789Z,23.60
2017-05-30T07:16:44.080Z,23.80
2017-05-30T07:19:12.407Z,24.10
2017-05-30T07:21:40.695Z,24.10
2017-05-30T07:24:08.980Z,24.00
2017-05-30T07:26:36.602Z,24.00
2017-05-30T07:29:04.143Z,24.20
2017-05-30T07:31:32.469Z,24.00
2017-05-30T07:34:00.031Z,24.00
2017-05-30T07:36:28.359Z,24.30
2017-05-30T07:38:55.872Z,24.30
2017-05-30T07:41:23.457Z,24.10
2017-05-30T07:43:51.829Z,24.70
2017-05-30T07:46:20.127Z,25.00
2017-05-30T07:48:48.487Z,24.90
2017-05-30T07:51:16.767Z,25.20
2017-05-30T07:53:45.056Z,25.40
2017-05-30T07:56:13.651Z,25.50
2017-05-30T07:58:41.949Z,25.30
2017-05-30T08:01:10.248Z,25.30
2017-05-30T08:03:38.608Z,25.60
2017-05-30T08:06:06.120Z,25.60
2017-05-30T08:08:34.402Z,25.90
2017-05-30T08:11:02.039Z,25.90
2017-05-30T08:13:30.327Z,25.70
2017-05-30T08:15:58.639Z,25.80
2017-05-30T08:18:26.971Z,26.10
2017-05-30T08:20:55.302Z,26.40
2017-05-30T08:23:23.610Z,26.60
2017-05-30T08:25:52.163Z,26.70
2017-05-30T08:28:19.667Z,26.70
2017-05-30T08:30:47.992Z,26.90
2017-05-30T08:33:15.827Z,26.80
2017-05-30T08:35:44.129Z,27.60
2017-05-30T08:38:12.411Z,28.00
2017-05-30T08:40:41.084Z,28.20
2017-05-30T08:43:08.596Z,28.20
2017-05-30T08:45:36.112Z,28.40
2017-05-30T08:48:04.695Z,29.00
2017-05-30T08:50:32.980Z,28.80
2017-05-30T08:53:01.277Z,29.00
2017-05-30T08:55:29.640Z,29.30
2017-05-30T08:57:58.492Z,29.80
2017-05-30T09:00:26.793Z,30.00
2017-05-30T09:02:55.080Z,31.00
2017-05-30T09:05:23.409Z,31.00
2017-05-30T09:07:51.740Z,31.20
2017-05-30T09:10:20.036Z,31.90
2017-05-30T09:12:49.281Z,33.10
2017-05-30T09:15:17.576Z,33.60
2017-05-30T09:17:46.149Z,33.20
2017-05-30T09:20:14.453Z,34.00
2017-05-30T09:22:41.999Z,33.90
2017-05-30T09:25:09.570Z,33.80
2017-05-30T09:27:37.851Z,35.00
2017-05-30T09:30:06.168Z,35.10
2017-05-30T09:32:33.985Z,35.00
2017-05-30T09:35:02.268Z,32.60
2017-05-30T09:37:29.789Z,32.60
2017-05-30T09:39:57.607Z,32.30
2017-05-30T09:42:25.884Z,32.70
2017-05-30T09:44:54.165Z,32.10
2017-05-30T09:47:22.774Z,32.90
2017-05-30T09:49:51.059Z,33.80
2017-05-30T09:52:19.343Z,34.10
2017-05-30T09:54:47.243Z,34.10
2017-05-30T09:57:15.568Z,36.50
2017-05-30T09:59:43.851Z,35.70
2017-05-30T10:02:12.431Z,36.70
2017-05-30T10:04:40.703Z,35.70
2017-05-30T10:07:09.335Z,36.70
2017-05-30T10:09:37.008Z,36.70
2017-05-30T10:12:05.288Z,36.50
2017-05-30T10:14:33.584Z,35.20
2017-05-30T10:17:02.061Z,35.90
2017-05-30T10:19:30.122Z,36.90
2017-05-30T10:21:58.443Z,37.40
2017-05-30T10:24:26.876Z,37.30
2017-05-30T10:26:55.175Z,37.20
2017-05-30T10:29:23.539Z,34.00
2017-05-30T10:31:51.113Z,33.90
2017-05-30T10:34:19.440Z,34.30
2017-05-30T10:36:47.719Z,35.30
2017-05-30T10:39:15.319Z,35.30
2017-05-30T10:41:42.843Z,35.00
2017-05-30T10:44:10.359Z,36.10
2017-05-30T10:46:38.693Z,35.50
2017-05-30T10:49:06.976Z,35.50
2017-05-30T10:51:35.263Z,36.40
2017-05-30T10:54:03.125Z,36.30
2017-05-30T10:56:30.639Z,36.50
2017-05-30T10:58:58.147Z,37.40
2017-05-30T11:01:26.540Z,37.50
2017-05-30T11:03:54.871Z,38.10
2017-05-30T11:06:23.896Z,38.80
2017-05-30T11:08:52.251Z,38.80
2017-05-30T11:11:19.772Z,38.70
2017-05-30T11:13:48.058Z,39.50
2017-05-30T11:16:16.652Z,39.40
2017-05-30T11:18:44.179Z,39.40
2017-05-30T11:21:11.911Z,37.80
2017-05-30T11:23:40.320Z,38.60
2017-05-30T11:26:08.605Z,37.60
2017-05-30T11:28:36.777Z,37.60
2017-05-30T11:31:05.155Z,38.10
2017-05-30T11:33:33.436Z,38.30
2017-05-30T11:36:01.719Z,38.60
2017-05-30T11:38:30.031Z,38.00
2017-05-30T11:40:58.336Z,38.00
2017-05-30T11:43:26.660Z,38.70
2017-05-30T11:45:55.080Z,38.30
2017-05-30T11:48:22.592Z,38.30
2017-05-30T11:50:50.107Z,36.90
2017-05-30T11:53:18.428Z,37.00
2017-05-30T11:55:46.735Z,36.50
2017-05-30T11:58:14.251Z,36.50
2017-05-30T12:00:42.031Z,36.90
2017-05-30T12:03:10.313Z,37.90
2017-05-30T12:05:38.463Z,37.90
2017-05-30T12:08:06.113Z,37.90
2017-05-30T12:10:34.399Z,39.20
2017-05-30T12:13:03.307Z,38.10
2017-05-30T12:15:31.397Z,38.80
2017-05-30T12:17:58.908Z,38.80
2017-05-30T12:20:27.187Z,38.40
2017-05-30T12:22:55.973Z,38.80
2017-05-30T12:25:24.295Z,38.30
2017-05-30T12:27:52.572Z,39.10
2017-05-30T12:30:21.231Z,39.30
2017-05-30T12:32:49.572Z,36.30
2017-05-30T12:35:17.863Z,36.30
2017-05-30T12:37:46.471Z,35.50
2017-05-30T12:40:14.755Z,35.00
2017-05-30T12:42:43.061Z,35.60
2017-05-30T12:45:10.868Z,35.50
2017-05-30T12:47:38.411Z,35.70
2017-05-30T12:50:06.723Z,35.40
2017-05-30T12:52:35.036Z,35.80
2017-05-30T12:55:03.312Z,35.80
2017-05-30T12:57:31.595Z,36.00
2017-05-30T12:59:59.928Z,35.50
2017-05-30T13:02:28.235Z,35.20
2017-05-30T13:04:56.519Z,34.80
2017-05-30T13:07:24.409Z,34.80
2017-05-30T13:09:52.686Z,35.70
2017-05-30T13:12:20.267Z,35.70
2017-05-30T13:14:48.604Z,37.70
2017-05-30T13:17:16.888Z,37.60
2017-05-30T13:19:45.175Z,37.50
2017-05-30T13:22:13.782Z,37.30
2017-05-30T13:24:42.516Z,38.20
2017-05-30T13:27:10.899Z,37.50
2017-05-30T13:29:40.087Z,38.20
2017-05-30T13:32:08.367Z,37.20
2017-05-30T13:34:37.235Z,36.90
2017-05-30T13:37:05.583Z,36.00
2017-05-30T13:39:33.864Z,35.90
2017-05-30T13:42:02.902Z,36.80
2017-05-30T13:44:31.252Z,37.60
2017-05-30T13:46:59.536Z,38.20
2017-05-30T13:49:27.826Z,36.10
2017-05-30T13:51:56.132Z,35.00
2017-05-30T13:54:24.415Z,35.00
2017-05-30T13:56:52.697Z,34.30
2017-05-30T13:59:21.291Z,34.00
2017-05-30T14:01:49.571Z,33.50
2017-05-30T14:04:17.096Z,33.40
2017-05-30T14:06:44.695Z,34.00
2017-05-30T14:09:12.685Z,34.10
2017-05-30T14:11:40.991Z,35.30
2017-05-30T14:14:09.345Z,36.10
2017-05-30T14:16:36.908Z,36.00
2017-05-30T14:19:05.260Z,35.20
2017-05-30T14:21:32.895Z,35.20
2017-05-30T14:24:02.007Z,34.70
2017-05-30T14:26:30.287Z,33.90
2017-05-30T14:28:58.552Z,33.10
2017-05-30T14:31:26.876Z,32.80
2017-05-30T14:33:55.160Z,31.70
2017-05-30T14:36:24.183Z,31.20
2017-05-30T14:38:52.532Z,30.70
2017-05-30T14:41:19.950Z,30.70
2017-05-30T14:43:49.471Z,29.70
2017-05-30T14:46:17.653Z,29.60
2017-05-30T14:48:46.600Z,28.80
2017-05-30T14:51:15.656Z,28.30
2017-05-30T14:53:43.824Z,28.10
2017-05-30T14:56:12.164Z,28.00
2017-05-30T14:58:41.223Z,28.10
2017-05-30T15:01:09.997Z,28.20
2017-05-30T15:03:38.888Z,28.20
2017-05-30T15:06:07.624Z,28.40
2017-05-30T15:08:35.919Z,28.40
2017-05-30T15:11:04.559Z,28.30
2017-05-30T15:13:33.004Z,27.80
2017-05-30T15:16:01.292Z,28.50
2017-05-30T15:18:28.868Z,28.40
2017-05-30T15:20:57.255Z,29.20
2017-05-30T15:23:25.579Z,29.50
2017-05-30T15:25:53.922Z,29.70
2017-05-30T15:28:22.225Z,30.40
2017-05-30T15:30:50.736Z,29.40
2017-05-30T15:33:19.839Z,28.90
2017-05-30T15:35:48.316Z,28.50
2017-05-30T15:38:15.785Z,28.40
2017-05-30T15:40:43.302Z,28.40
2017-05-30T15:43:11.598Z,28.20
2017-05-30T15:45:39.627Z,28.20
2017-05-30T15:48:07.151Z,28.50
2017-05-30T15:50:34.732Z,29.00
2017-05-30T15:53:03.060Z,28.30
2017-05-30T15:55:31.344Z,28.00
2017-05-30T15:57:58.899Z,28.00
2017-05-30T16:00:27.259Z,27.80
2017-05-30T16:02:55.652Z,27.60
2017-05-30T16:05:23.944Z,27.30
2017-05-30T16:07:52.521Z,27.40
2017-05-30T16:10:20.804Z,27.20
2017-05-30T16:12:49.083Z,27.20
2017-05-30T16:15:17.761Z,27.20
2017-05-30T16:17:46.060Z,27.10
2017-05-30T16:20:14.353Z,26.90
2017-05-30T16:22:42.715Z,26.50
2017-05-30T16:25:11.018Z,26.60
2017-05-30T16:27:39.314Z,26.80
2017-05-30T16:30:07.811Z,27.10
2017-05-30T16:32:36.112Z,27.20
2017-05-30T16:35:04.397Z,26.90
2017-05-30T16:37:33.095Z,27.20
2017-05-30T16:40:01.393Z,27.20
2017-05-30T16:42:29.678Z,27.10
2017-05-30T16:44:58.020Z,27.40
2017-05-30T16:47:26.838Z,27.20
2017-05-30T16:49:55.169Z,27.30
2017-05-30T16:52:23.085Z,27.30
2017-05-30T16:54:50.608Z,27.20
2017-05-30T16:57:18.892Z,26.90
2017-05-30T16:59:46.464Z,26.80
2017-05-30T17:02:13.983Z,26.90
2017-05-30T17:04:41.604Z,26.70
2017-05-30T17:07:10.266Z,26.50
2017-05-30T17:09:37.780Z,26.00
2017-05-30T17:12:06.068Z,25.70
2017-05-30T17:14:34.410Z,25.50
2017-05-30T17:17:02.037Z,25.50
2017-05-30T17:19:30.096Z,25.20
2017-05-30T17:21:57.704Z,25.20
2017-05-30T17:24:25.222Z,25.10
2017-05-30T17:26:52.799Z,24.90
2017-05-30T17:29:21.228Z,24.70
2017-05-30T17:31:49.532Z,24.70
2017-05-30T17:34:18.040Z,24.60
2017-05-30T17:36:46.720Z,24.50
2017-05-30T17:39:14.250Z,24.40
2017-05-30T17:41:42.540Z,24.30
2017-05-30T17:44:10.894Z,24.20
2017-05-30T17:46:39.183Z,24.10
2017-05-30T17:49:07.500Z,24.10
2017-05-30T17:51:35.968Z,24.10
2017-05-30T17:54:04.295Z,24.10
2017-05-30T17:56:31.840Z,24.10
2017-05-30T17:58:59.659Z,24.20
2017-05-30T18:01:27.947Z,24.30
2017-05-30T18:03:56.258Z,24.30
2017-05-30T18:06:24.604Z,24.30
2017-05-30T18:08:52.896Z,24.20
2017-05-30T18:11:20.525Z,24.20
2017-05-30T18:13:49.416Z,24.20
2017-05-30T18:16:17.712Z,24.10
2017-05-30T18:18:46.011Z,23.90
2017-05-30T18:21:13.633Z,23.90
2017-05-30T18:23:41.484Z,23.80
2017-05-30T18:26:09.821Z,23.60
2017-05-30T18:28:37.487Z,23.60
2017-05-30T18:31:05.923Z,23.60
2017-05-30T18:33:33.445Z,23.50
2017-05-30T18:36:02.075Z,23.50
2017-05-30T18:38:30.507Z,23.40
2017-05-30T18:40:58.787Z,23.40
2017-05-30T18:43:27.107Z,23.40
2017-05-30T18:45:55.404Z,23.40
2017-05-30T18:48:23.701Z,23.40
2017-05-30T18:50:52.145Z,23.40
2017-05-30T18:53:20.448Z,23.40
2017-05-30T18:55:47.978Z,23.40
2017-05-30T18:58:15.856Z,23.40
2017-05-30T19:00:43.211Z,23.40
2017-05-30T19:03:11.604Z,23.40
2017-05-30T19:05:39.345Z,23.30
2017-05-30T19:08:07.207Z,23.30
2017-05-30T19:10:35.510Z,23.10
2017-05-30T19:13:03.084Z,23.10
2017-05-30T19:15:30.729Z,23.10
2017-05-30T19:17:58.295Z,23.00
2017-05-30T19:20:27.380Z,22.90
2017-05-30T19:22:54.895Z,22.80
2017-05-30T19:25:24.176Z,22.80
2017-05-30T19:27:53.308Z,22.80
2017-05-30T19:30:22.319Z,22.70
2017-05-30T19:32:49.835Z,22.70
2017-05-30T19:35:18.172Z,22.60
2017-05-30T19:37:46.475Z,22.60
2017-05-30T19:40:14.755Z,22.60
2017-05-30T19:42:43.083Z,22.50
2017-05-30T19:45:11.907Z,22.50
2017-05-30T19:47:39.480Z,22.50
2017-05-30T19:50:07.079Z,22.30
2017-05-30T19:52:35.377Z,22.30
2017-05-30T19:55:03.667Z,22.20
2017-05-30T19:57:31.308Z,22.20
2017-05-30T19:59:59.704Z,22.00
2017-05-30T20:02:27.231Z,22.00
2017-05-30T20:04:54.819Z,21.90
2017-05-30T20:07:23.199Z,21.70
2017-05-30T20:09:51.540Z,21.70
2017-05-30T20:12:19.905Z,21.60
2017-05-30T20:14:48.414Z,21.60
2017-05-30T20:17:15.947Z,21.60
2017-05-30T20:19:44.237Z,21.40
2017-05-30T20:22:12.460Z,21.30
2017-05-30T20:24:39.980Z,21.30
2017-05-30T20:27:07.515Z,21.20
2017-05-30T20:29:35.880Z,21.30
2017-05-30T20:32:03.395Z,21.20
2017-05-30T20:34:30.712Z,21.20
2017-05-30T20:36:59.336Z,21.20
2017-05-30T20:39:27.629Z,21.30
2017-05-30T20:41:55.152Z,21.20
2017-05-30T20:44:23.503Z,21.30
2017-05-30T20:46:51.105Z,21.20
2017-05-30T20:49:18.615Z,21.10
2017-05-30T20:51:46.496Z,21.00
2017-05-30T20:54:14.792Z,20.90
2017-05-30T20:56:43.417Z,20.90
2017-05-30T20:59:10.967Z,20.90
2017-05-30T21:01:39.265Z,20.80
2017-05-30T21:04:06.839Z,20.70
2017-05-30T21:06:35.128Z,20.70
2017-05-30T21:09:03.424Z,20.70
2017-05-30T21:11:31.955Z,20.70
2017-05-30T21:14:00.231Z,20.70
2017-05-30T21:16:28.532Z,20.70
2017-05-30T21:18:56.128Z,20.70
2017-05-30T21:21:24.412Z,20.70
2017-05-30T21:23:51.925Z,20.70
2017-05-30T21:26:20.531Z,20.60
2017-05-30T21:28:48.980Z,20.60
2017-05-30T21:31:17.270Z,20.60
2017-05-30T21:33:45.572Z,20.60
2017-05-30T21:36:13.428Z,20.60
2017-05-30T21:38:40.963Z,20.60
2017-05-30T21:41:09.265Z,20.50
2017-05-30T21:43:37.072Z,20.50
2017-05-30T21:46:05.356Z,20.40
2017-05-30T21:48:34.343Z,20.20
2017-05-30T21:51:03.039Z,20.10
2017-05-30T21:53:30.559Z,20.10
2017-05-30T21:55:58.087Z,20.10
2017-05-30T21:58:25.981Z,20.10
2017-05-30T22:00:54.288Z,20.10
2017-05-30T22:03:23.116Z,20.10
2017-05-30T22:05:50.776Z,20.00
2017-05-30T22:08:18.342Z,20.00
2017-05-30T22:10:46.757Z,19.90
2017-05-30T22:13:14.358Z,19.90
2017-05-30T22:15:42.692Z,19.70
2017-05-30T22:18:10.984Z,19.70
2017-05-30T22:20:38.799Z,19.70
2017-05-30T22:23:07.081Z,19.60
2017-05-30T22:25:35.967Z,19.60
2017-05-30T22:28:04.475Z,19.50
2017-05-30T22:30:32.765Z,19.40
2017-05-30T22:33:00.302Z,19.40
2017-05-30T22:35:28.735Z,19.30
2017-05-30T22:37:57.015Z,19.20
2017-05-30T22:40:24.524Z,19.20
2017-05-30T22:42:52.103Z,19.10
2017-05-30T22:45:20.440Z,19.00
2017-05-30T22:47:47.987Z,19.00
2017-05-30T22:50:16.609Z,19.00
2017-05-30T22:52:44.953Z,19.00
2017-05-30T22:55:12.509Z,19.00
2017-05-30T22:57:40.863Z,18.70
2017-05-30T23:00:09.167Z,18.60
2017-05-30T23:02:37.463Z,18.50
2017-05-30T23:05:06.087Z,18.50
2017-05-30T23:07:34.388Z,18.40
2017-05-30T23:10:02.668Z,18.30
2017-05-30T23:12:30.976Z,18.30
2017-05-30T23:14:59.263Z,18.30
2017-05-30T23:17:27.603Z,18.30
2017-05-30T23:19:55.907Z,18.30
2017-05-30T23:22:24.195Z,18.40
2017-05-30T23:24:52.789Z,18.40
2017-05-30T23:27:20.308Z,18.40
2017-05-30T23:29:48.603Z,18.40
2017-05-30T23:32:16.276Z,18.30
2017-05-30T23:34:44.588Z,18.40
2017-05-30T23:37:12.876Z,18.30
2017-05-30T23:39:41.203Z,18.40
2017-05-30T23:42:10.084Z,18.40
2017-05-30T23:44:37.668Z,18.40
2017-05-30T23:47:06.003Z,18.20
2017-05-30T23:49:34.291Z,18.20
2017-05-30T23:52:03.190Z,18.30
2017-05-30T23:54:31.808Z,18.20
2017-05-30T23:57:00.146Z,18.10
2017-05-30T23:59:27.691Z,18.10
